Time;durP1;ratioP1;P1;durP2;ratioP2;P2;SDS_P1;SDS_P2;PMS_P1;PMS_P2;Temp;Humidity;BMP_temperature;BMP_pressure;BME280_temperature;BME280_humidity;BME280_pressure;Samples;Min_cycle;Max_cycle;Signal;HPM_P1;HPM_P2
2021/09/08 00:00:17;;;;;;;2.40;1.80;;;14.70;98.00;;;;;;5112616;28;20486;-69
2021/09/08 00:02:44;;;;;;;3.00;2.03;;;14.70;98.00;;;;;;5112060;28;20551;-69
2021/09/08 00:05:12;;;;;;;1.70;1.60;;;14.80;98.00;;;;;;5112376;28;20555;-69
2021/09/08 00:07:39;;;;;;;2.80;2.07;;;14.70;98.00;;;;;;5112298;28;20455;-69
2021/09/08 00:10:08;;;;;;;3.37;2.10;;;14.80;98.00;;;;;;5110652;28;20818;-70
2021/09/08 00:12:36;;;;;;;2.03;1.87;;;14.70;98.00;;;;;;5112150;28;20447;-70
2021/09/08 00:15:06;;;;;;;1.60;1.60;;;14.60;98.00;;;;;;5112156;28;20458;-69
2021/09/08 00:17:33;;;;;;;1.97;1.43;;;14.60;98.00;;;;;;5112198;28;20541;-69
2021/09/08 00:20:00;;;;;;;2.63;1.80;;;14.50;98.00;;;;;;5112180;28;20458;-69
2021/09/08 00:22:28;;;;;;;2.40;1.73;;;14.50;98.00;;;;;;5111974;28;20447;-70
2021/09/08 00:24:55;;;;;;;1.83;1.60;;;14.50;98.00;;;;;;5112185;28;20459;-70
2021/09/08 00:27:23;;;;;;;1.97;1.70;;;14.40;98.00;;;;;;5112190;28;20455;-69
2021/09/08 00:29:50;;;;;;;2.53;2.00;;;14.40;98.00;;;;;;5111794;28;20459;-70
2021/09/08 00:32:19;;;;;;;3.90;1.80;;;14.60;98.00;;;;;;5112023;28;20483;-69
2021/09/08 00:34:46;;;;;;;2.03;1.57;;;14.60;98.00;;;;;;5111982;28;20516;-69
2021/09/08 00:37:13;;;;;;;3.20;2.00;;;14.70;98.00;;;;;;5112176;28;20511;-70
2021/09/08 00:39:40;;;;;;;2.00;1.70;;;14.50;98.00;;;;;;5112040;28;20482;-69
2021/09/08 00:42:11;;;;;;;2.90;2.17;;;14.50;98.00;;;;;;5116314;28;20490;-69
2021/09/08 00:44:39;;;;;;;1.87;1.63;;;14.50;98.00;;;;;;5116120;28;20511;-70
2021/09/08 00:47:06;;;;;;;3.00;2.27;;;14.50;98.00;;;;;;5115942;28;20475;-69
2021/09/08 00:49:36;;;;;;;3.37;2.10;;;14.40;98.00;;;;;;5116200;28;20491;-70
2021/09/08 00:52:05;;;;;;;1.53;1.30;;;14.40;98.00;;;;;;5116247;28;20478;-70
2021/09/08 00:54:36;;;;;;;3.27;2.10;;;14.30;98.00;;;;;;5116001;28;20455;-69
2021/09/08 00:57:05;;;;;;;3.67;2.10;;;14.30;98.00;;;;;;5115468;28;20549;-70
2021/09/08 00:59:33;;;;;;;1.90;1.73;;;14.30;98.00;;;;;;5116165;28;20447;-69
2021/09/08 01:02:04;;;;;;;1.80;1.40;;;14.30;98.00;;;;;;5116003;28;20451;-68
2021/09/08 01:04:31;;;;;;;2.30;1.63;;;14.20;98.00;;;;;;5116018;28;20460;-71
2021/09/08 01:07:00;;;;;;;1.20;1.20;;;14.10;98.00;;;;;;5115661;28;20501;-69
2021/09/08 01:09:29;;;;;;;3.43;1.67;;;14.10;98.00;;;;;;5115798;28;20454;-69
2021/09/08 01:11:56;;;;;;;3.20;1.93;;;14.10;98.00;;;;;;5115673;28;20517;-69
2021/09/08 01:14:23;;;;;;;2.07;1.57;;;14.10;98.00;;;;;;5115320;28;21137;-69
2021/09/08 01:16:50;;;;;;;2.53;1.93;;;14.10;98.00;;;;;;5115475;28;20454;-69
2021/09/08 01:19:17;;;;;;;2.20;1.47;;;14.10;98.00;;;;;;5115700;28;20453;-70
2021/09/08 01:21:45;;;;;;;2.30;1.80;;;14.00;98.00;;;;;;5115461;28;20446;-70
2021/09/08 01:24:13;;;;;;;3.83;1.77;;;14.00;98.00;;;;;;5115248;28;20975;-69
2021/09/08 01:26:43;;;;;;;1.90;1.37;;;13.90;98.00;;;;;;5115200;28;20455;-70
2021/09/08 01:29:10;;;;;;;2.30;1.57;;;13.80;98.00;;;;;;5114708;28;20497;-70
2021/09/08 01:31:41;;;;;;;1.90;1.40;;;13.90;98.00;;;;;;5114973;28;20540;-69
2021/09/08 01:34:08;;;;;;;1.60;1.60;;;14.00;98.00;;;;;;5114998;28;20451;-70
2021/09/08 01:36:38;;;;;;;2.30;1.60;;;13.90;98.00;;;;;;5115259;28;20515;-69
2021/09/08 01:39:05;;;;;;;1.97;1.40;;;13.90;98.00;;;;;;5115062;28;20458;-69
2021/09/08 01:41:34;;;;;;;2.97;1.90;;;13.90;98.00;;;;;;5113688;28;20454;-70
2021/09/08 01:44:01;;;;;;;2.00;1.50;;;13.90;98.00;;;;;;5115107;28;20501;-70
2021/09/08 01:46:28;;;;;;;2.30;2.10;;;14.00;98.00;;;;;;5114983;28;20541;-68
2021/09/08 01:48:55;;;;;;;1.97;1.60;;;14.00;98.00;;;;;;5114886;28;20487;-69
2021/09/08 01:51:22;;;;;;;1.53;1.20;;;14.00;98.00;;;;;;5114319;28;20905;-69
2021/09/08 01:53:50;;;;;;;2.33;1.60;;;13.90;98.00;;;;;;5114739;28;20873;-70
2021/09/08 01:56:17;;;;;;;1.87;1.50;;;13.80;98.00;;;;;;5114779;28;20503;-69
2021/09/08 01:58:45;;;;;;;1.70;1.47;;;13.60;98.00;;;;;;5114731;28;20939;-68
2021/09/08 02:01:12;;;;;;;1.70;1.57;;;13.50;98.00;;;;;;5114738;28;20449;-70
2021/09/08 02:03:39;;;;;;;3.47;2.10;;;13.50;98.00;;;;;;5114768;28;20543;-69
2021/09/08 02:06:20;;;;;;;1.70;1.40;;;13.60;98.00;;;;;;5114745;28;20453;-70
2021/09/08 02:08:47;;;;;;;2.30;1.77;;;13.70;98.00;;;;;;5114561;28;20981;-70
2021/09/08 02:11:14;;;;;;;2.50;1.97;;;13.70;98.00;;;;;;5114558;28;20521;-69
2021/09/08 02:13:41;;;;;;;2.10;1.90;;;13.60;98.00;;;;;;5114462;28;21021;-70
2021/09/08 02:16:10;;;;;;;2.10;1.63;;;13.70;98.00;;;;;;5114667;28;20875;-69
2021/09/08 02:18:37;;;;;;;1.87;1.47;;;13.60;98.00;;;;;;5114746;28;20501;-69
2021/09/08 02:21:04;;;;;;;1.53;1.30;;;13.50;98.00;;;;;;5114467;28;20514;-70
2021/09/08 02:23:31;;;;;;;2.40;1.73;;;13.40;98.00;;;;;;5114479;28;20495;-69
2021/09/08 02:25:58;;;;;;;2.10;1.50;;;13.30;98.00;;;;;;5114473;28;20792;-70
2021/09/08 02:28:25;;;;;;;1.70;1.50;;;13.20;98.00;;;;;;5112669;28;20538;-69
2021/09/08 02:30:52;;;;;;;5.90;1.50;;;13.30;98.00;;;;;;5114464;28;20456;-69
2021/09/08 02:33:20;;;;;;;3.40;1.73;;;13.20;98.00;;;;;;5112816;28;20552;-69
2021/09/08 02:35:50;;;;;;;2.47;1.73;;;13.10;98.00;;;;;;5113790;28;20453;-71
2021/09/08 02:38:17;;;;;;;2.03;1.33;;;13.10;98.00;;;;;;5114142;28;20455;-69
2021/09/08 02:40:44;;;;;;;2.83;1.70;;;13.20;98.00;;;;;;5113970;28;20484;-70
2021/09/08 02:43:11;;;;;;;1.97;1.87;;;13.20;98.00;;;;;;5113690;28;20490;-70
2021/09/08 02:45:38;;;;;;;1.50;1.27;;;13.30;98.00;;;;;;5113683;28;20490;-69
2021/09/08 02:48:05;;;;;;;3.87;1.83;;;13.20;98.00;;;;;;5113815;28;20965;-69
2021/09/08 02:50:34;;;;;;;1.50;1.50;;;13.30;98.00;;;;;;5113702;28;20563;-69
2021/09/08 02:53:01;;;;;;;2.67;1.53;;;13.20;98.00;;;;;;5113514;28;20526;-69
2021/09/08 02:55:28;;;;;;;3.87;2.50;;;13.30;98.00;;;;;;5113513;28;20459;-70
2021/09/08 02:57:55;;;;;;;1.73;1.37;;;13.30;98.00;;;;;;5113394;28;20505;-69
2021/09/08 03:00:22;;;;;;;2.70;1.50;;;13.30;98.00;;;;;;5113448;28;20881;-70
2021/09/08 03:02:50;;;;;;;3.60;1.80;;;13.30;98.00;;;;;;5112540;28;20483;-70
2021/09/08 03:05:17;;;;;;;1.60;1.47;;;13.30;98.00;;;;;;5112237;28;20464;-70
2021/09/08 03:07:46;;;;;;;3.50;2.00;;;13.20;98.00;;;;;;5113272;28;20496;-71
2021/09/08 03:10:13;;;;;;;2.73;2.27;;;13.10;98.00;;;;;;5113337;28;20512;-70
2021/09/08 03:12:40;;;;;;;1.77;1.20;;;13.00;98.00;;;;;;5113265;28;21056;-69
2021/09/08 03:15:08;;;;;;;1.93;1.40;;;12.90;98.00;;;;;;5113226;28;20923;-70
2021/09/08 03:17:35;;;;;;;3.00;1.67;;;12.80;98.00;;;;;;5112954;28;20511;-69
2021/09/08 03:20:03;;;;;;;1.60;1.47;;;12.90;98.00;;;;;;5113161;28;20450;-69
2021/09/08 03:22:30;;;;;;;2.20;1.33;;;12.80;98.00;;;;;;5113256;28;20453;-70
2021/09/08 03:24:59;;;;;;;2.27;1.70;;;12.80;98.00;;;;;;5113105;28;20515;-69
2021/09/08 03:27:26;;;;;;;2.03;1.30;;;12.80;98.00;;;;;;5111941;28;20491;-69
2021/09/08 03:29:53;;;;;;;1.90;1.53;;;12.80;98.00;;;;;;5113031;28;20494;-69
2021/09/08 03:32:20;;;;;;;1.53;1.40;;;12.80;98.00;;;;;;5113104;28;20515;-69
2021/09/08 03:34:47;;;;;;;1.80;1.47;;;12.60;98.00;;;;;;5113112;28;20952;-70
2021/09/08 03:37:14;;;;;;;2.03;1.60;;;12.60;98.00;;;;;;5113171;28;20947;-69
2021/09/08 03:39:41;;;;;;;1.40;1.20;;;12.60;98.00;;;;;;5113052;28;20476;-70
2021/09/08 03:42:09;;;;;;;1.90;1.20;;;12.60;98.00;;;;;;5112509;28;20484;-69
2021/09/08 03:44:37;;;;;;;1.90;1.67;;;12.70;98.00;;;;;;5112452;28;20494;-68
2021/09/08 03:47:04;;;;;;;3.00;1.77;;;12.80;98.00;;;;;;5112290;28;20464;-69
2021/09/08 03:49:32;;;;;;;1.77;1.50;;;12.90;98.00;;;;;;5112673;28;20484;-70
2021/09/08 03:51:58;;;;;;;1.80;1.50;;;12.90;98.00;;;;;;5112714;28;20517;-68
2021/09/08 03:54:26;;;;;;;3.20;2.07;;;13.00;98.00;;;;;;5112292;28;20492;-70
2021/09/08 03:56:53;;;;;;;1.40;1.30;;;12.90;98.00;;;;;;5112629;28;20505;-68
2021/09/08 03:59:22;;;;;;;3.23;1.60;;;12.70;98.00;;;;;;5112641;28;20889;-70
2021/09/08 04:01:52;;;;;;;2.37;1.43;;;12.70;98.00;;;;;;5112243;28;20980;-70
2021/09/08 04:04:19;;;;;;;2.03;1.63;;;12.70;98.00;;;;;;5112185;28;21205;-69
2021/09/08 04:06:46;;;;;;;2.80;1.67;;;12.60;98.00;;;;;;5112330;28;20496;-71
2021/09/08 04:09:13;;;;;;;4.30;1.83;;;12.50;98.00;;;;;;5112354;28;21000;-68
2021/09/08 04:11:40;;;;;;;1.80;1.40;;;12.50;98.00;;;;;;5112254;28;20541;-70
2021/09/08 04:14:07;;;;;;;1.93;1.63;;;12.50;98.00;;;;;;5111983;28;21006;-70
2021/09/08 04:16:35;;;;;;;1.70;1.57;;;12.50;98.00;;;;;;5112194;28;20456;-71
2021/09/08 04:19:04;;;;;;;1.97;1.73;;;12.60;98.00;;;;;;5112096;28;20483;-69
2021/09/08 04:21:31;;;;;;;1.43;1.30;;;12.60;98.00;;;;;;5112142;28;20460;-69
2021/09/08 04:23:58;;;;;;;1.47;1.27;;;12.50;98.00;;;;;;5112185;28;20507;-70
2021/09/08 04:26:25;;;;;;;2.80;1.57;;;12.40;98.00;;;;;;5112151;28;20872;-68
2021/09/08 04:29:03;;;;;;;3.10;1.60;;;12.30;98.00;;;;;;5112069;28;20487;-70
2021/09/08 04:31:30;;;;;;;2.30;1.90;;;12.40;98.00;;;;;;5112093;28;20463;-70
2021/09/08 04:33:59;;;;;;;2.27;1.73;;;12.40;98.00;;;;;;5112107;28;20456;-70
2021/09/08 04:36:26;;;;;;;1.30;1.20;;;12.40;98.00;;;;;;5112474;28;20533;-69
2021/09/08 04:38:53;;;;;;;2.00;1.30;;;12.40;98.00;;;;;;5111913;28;20491;-70
2021/09/08 04:41:20;;;;;;;1.77;1.33;;;12.40;98.00;;;;;;5112286;28;20468;-69
2021/09/08 04:43:47;;;;;;;1.67;1.40;;;12.30;98.00;;;;;;5112061;28;20873;-70
2021/09/08 04:46:14;;;;;;;1.80;1.70;;;12.30;98.00;;;;;;5112173;28;20446;-68
2021/09/08 04:48:41;;;;;;;1.60;1.43;;;12.30;98.00;;;;;;5112040;28;20526;-69
2021/09/08 04:51:10;;;;;;;3.93;1.53;;;12.40;98.00;;;;;;5111277;28;20460;-68
2021/09/08 04:53:37;;;;;;;1.30;1.20;;;12.40;98.00;;;;;;5111159;28;20553;-69
2021/09/08 04:56:05;;;;;;;5.37;1.73;;;12.50;98.00;;;;;;5111387;28;20528;-71
2021/09/08 04:58:32;;;;;;;1.50;1.27;;;12.40;98.00;;;;;;5111590;28;20931;-70
2021/09/08 05:01:00;;;;;;;6.20;1.90;;;12.30;98.00;;;;;;5112143;28;20461;-69
2021/09/08 05:03:27;;;;;;;1.77;1.40;;;12.40;98.00;;;;;;5112038;28;20481;-70
2021/09/08 05:05:54;;;;;;;3.17;1.57;;;12.40;98.00;;;;;;5111670;28;20940;-70
2021/09/08 05:08:22;;;;;;;1.20;1.10;;;12.40;98.00;;;;;;5111685;28;20488;-69
2021/09/08 05:10:49;;;;;;;2.23;1.30;;;12.20;98.00;;;;;;5112131;28;20481;-70
2021/09/08 05:13:16;;;;;;;1.37;1.23;;;12.20;98.00;;;;;;5111531;28;20513;-69
2021/09/08 05:15:43;;;;;;;1.67;1.33;;;12.30;98.00;;;;;;5111650;28;20498;-69
2021/09/08 05:18:11;;;;;;;1.20;1.20;;;12.30;98.00;;;;;;5111654;28;20506;-70
2021/09/08 05:20:39;;;;;;;3.07;1.53;;;12.30;98.00;;;;;;5110723;28;20458;-69
2021/09/08 05:23:07;;;;;;;2.13;1.43;;;12.40;98.00;;;;;;5111399;28;20456;-70
2021/09/08 05:25:35;;;;;;;2.80;1.83;;;12.40;98.00;;;;;;5111592;28;20484;-69
2021/09/08 05:28:08;;;;;;;4.50;1.80;;;12.40;98.00;;;;;;5115386;28;20460;-70
2021/09/08 05:30:35;;;;;;;5.27;1.77;;;12.30;98.00;;;;;;5113916;28;20969;-70
2021/09/08 05:33:02;;;;;;;3.20;2.20;;;12.40;98.00;;;;;;5115274;28;20523;-70
2021/09/08 05:35:29;;;;;;;1.30;1.30;;;12.40;98.00;;;;;;5115309;28;20447;-69
2021/09/08 05:37:56;;;;;;;3.97;2.10;;;12.30;98.00;;;;;;5115100;28;20487;-71
2021/09/08 05:40:23;;;;;;;2.73;1.83;;;12.30;98.00;;;;;;5115181;28;20546;-70
2021/09/08 05:42:52;;;;;;;1.43;1.23;;;12.30;98.00;;;;;;5115186;28;20522;-71
2021/09/08 05:45:19;;;;;;;4.20;1.73;;;12.30;98.00;;;;;;5115079;28;20458;-69
2021/09/08 05:47:46;;;;;;;1.40;1.33;;;12.30;98.00;;;;;;5115111;28;20540;-69
2021/09/08 05:50:13;;;;;;;1.60;1.60;;;12.30;98.00;;;;;;5114598;28;20888;-69
2021/09/08 05:52:40;;;;;;;1.80;1.40;;;12.30;98.00;;;;;;5114557;28;20592;-69
2021/09/08 05:55:07;;;;;;;3.63;1.47;;;12.30;98.00;;;;;;5114846;27;20488;-70
2021/09/08 05:57:34;;;;;;;3.10;1.50;;;12.30;98.00;;;;;;5113616;28;20895;-70
2021/09/08 06:00:04;;;;;;;2.20;1.70;;;12.30;98.00;;;;;;5114674;28;20456;-70
2021/09/08 06:02:31;;;;;;;1.53;1.50;;;12.40;98.00;;;;;;5114811;28;20484;-70
2021/09/08 06:04:58;;;;;;;4.53;2.20;;;12.50;98.00;;;;;;5114788;28;20879;-70
2021/09/08 06:07:25;;;;;;;2.00;1.30;;;12.50;98.00;;;;;;5114792;28;20538;-69
2021/09/08 06:09:52;;;;;;;2.67;1.70;;;12.50;98.00;;;;;;5114665;28;20498;-70
2021/09/08 06:12:19;;;;;;;1.87;1.50;;;12.50;98.00;;;;;;5114533;28;21060;-71
2021/09/08 06:14:46;;;;;;;2.50;1.50;;;12.60;98.00;;;;;;5114715;28;20488;-71
2021/09/08 06:17:14;;;;;;;1.40;1.33;;;12.80;98.00;;;;;;5114609;28;20855;-70
2021/09/08 06:19:41;;;;;;;1.30;1.20;;;12.90;98.00;;;;;;5114441;28;20509;-70
2021/09/08 06:22:09;;;;;;;1.90;1.80;;;12.90;98.00;;;;;;5114535;28;20794;-70
2021/09/08 06:24:36;;;;;;;1.50;1.37;;;13.00;98.00;;;;;;5114071;28;20505;-70
2021/09/08 06:27:04;;;;;;;1.83;1.60;;;13.00;98.00;;;;;;5114674;28;20802;-71
2021/09/08 06:29:31;;;;;;;1.47;1.47;;;13.00;98.00;;;;;;5114137;28;20456;-72
2021/09/08 06:32:00;;;;;;;1.70;1.50;;;13.10;98.00;;;;;;5114080;28;20454;-71
2021/09/08 06:34:28;;;;;;;1.93;1.40;;;13.20;98.00;;;;;;5113921;28;20548;-72
2021/09/08 06:36:55;;;;;;;2.67;1.27;;;13.20;98.00;;;;;;5114269;28;20533;-71
2021/09/08 06:39:22;;;;;;;2.07;1.40;;;13.30;98.00;;;;;;5113756;28;20490;-70
2021/09/08 06:41:51;;;;;;;3.63;1.50;;;13.40;98.00;;;;;;5113968;28;20488;-73
2021/09/08 06:44:22;;;;;;;3.70;2.03;;;13.50;98.00;;;;;;5113744;28;20536;-71
2021/09/08 06:46:50;;;;;;;2.80;1.73;;;13.60;98.00;;;;;;5113767;28;20482;-71
2021/09/08 06:49:19;;;;;;;2.07;1.70;;;13.80;98.00;;;;;;5113669;28;20464;-71
2021/09/08 06:51:47;;;;;;;2.03;1.57;;;13.80;98.00;;;;;;5113845;28;20497;-72
2021/09/08 06:54:16;;;;;;;3.00;1.80;;;13.90;98.00;;;;;;5113484;28;20482;-70
2021/09/08 06:56:43;;;;;;;3.10;2.00;;;13.90;98.00;;;;;;5113685;28;20494;-72
2021/09/08 06:59:10;;;;;;;1.50;1.40;;;14.00;98.00;;;;;;5113385;28;20450;-72
2021/09/08 07:01:37;;;;;;;1.97;1.67;;;14.00;98.00;;;;;;5112367;28;20508;-73
2021/09/08 07:04:05;;;;;;;3.20;2.37;;;14.20;98.00;;;;;;5113342;28;20455;-72
2021/09/08 07:06:32;;;;;;;1.70;1.63;;;14.40;98.00;;;;;;5112273;28;20486;-72
2021/09/08 07:09:01;;;;;;;1.90;1.87;;;14.50;98.00;;;;;;5113592;28;20879;-73
2021/09/08 07:11:28;;;;;;;1.67;1.47;;;14.70;98.00;;;;;;5112340;28;20454;-73
2021/09/08 07:13:54;;;;;;;1.90;1.90;;;14.80;98.00;;;;;;5113212;28;21020;-71
2021/09/08 07:16:21;;;;;;;2.87;2.40;;;14.90;98.00;;;;;;5113380;27;20497;-71
2021/09/08 07:18:48;;;;;;;2.37;1.57;;;15.00;98.00;;;;;;5113244;28;20510;-72
2021/09/08 07:21:16;;;;;;;3.00;1.37;;;15.10;98.00;;;;;;5113307;28;20453;-71
2021/09/08 07:23:43;;;;;;;2.20;1.57;;;15.10;98.00;;;;;;5112153;28;20915;-73
2021/09/08 07:26:13;;;;;;;2.17;1.90;;;15.20;98.00;;;;;;5113308;28;20457;-73
2021/09/08 07:28:39;;;;;;;1.67;1.60;;;15.30;98.00;;;;;;5112968;28;20508;-72
2021/09/08 07:31:06;;;;;;;3.13;2.07;;;15.40;98.00;;;;;;5097687;28;20888;-74
2021/09/08 07:33:33;;;;;;;2.80;1.97;;;15.50;98.00;;;;;;5103525;28;20570;-70
2021/09/08 07:36:02;;;;;;;2.57;1.80;;;15.70;98.00;;;;;;5107948;28;20438;-70
2021/09/08 07:38:29;;;;;;;4.13;2.00;;;15.80;98.00;;;;;;5107271;28;20471;-70
2021/09/08 07:40:56;;;;;;;2.57;2.17;;;16.00;98.00;;;;;;5099135;28;20516;-69
2021/09/08 07:43:24;;;;;;;2.37;2.10;;;16.10;98.00;;;;;;5094924;28;20949;-71
2021/09/08 07:45:52;;;;;;;4.30;2.33;;;16.30;98.00;;;;;;5099619;28;20478;-70
2021/09/08 07:48:20;;;;;;;2.63;2.07;;;16.30;98.00;;;;;;5103632;28;20963;-71
2021/09/08 07:50:48;;;;;;;2.77;2.00;;;16.40;98.00;;;;;;5093306;28;20455;-74
2021/09/08 07:53:15;;;;;;;1.97;1.90;;;16.50;98.00;;;;;;5090168;28;20487;-72
2021/09/08 07:55:43;;;;;;;6.07;2.80;;;16.70;98.00;;;;;;5100008;28;20487;-72
2021/09/08 07:58:10;;;;;;;3.53;1.97;;;16.80;98.00;;;;;;5089199;28;20487;-73
2021/09/08 08:00:38;;;;;;;2.83;2.20;;;17.00;98.00;;;;;;5101630;28;20447;-74
2021/09/08 08:03:06;;;;;;;2.80;2.23;;;17.10;98.00;;;;;;5095540;28;20538;-71
2021/09/08 08:05:34;;;;;;;2.00;1.73;;;17.30;98.00;;;;;;5103572;28;20479;-73
2021/09/08 08:08:02;;;;;;;1.50;1.43;;;17.50;98.00;;;;;;5094137;28;20482;-74
2021/09/08 08:10:30;;;;;;;2.57;2.20;;;17.80;98.00;;;;;;5094863;28;20485;-70
2021/09/08 08:12:57;;;;;;;2.73;2.20;;;17.90;98.00;;;;;;5090364;28;20591;-72
2021/09/08 08:15:25;;;;;;;3.27;2.10;;;18.10;98.00;;;;;;5103366;28;21015;-71
2021/09/08 08:17:53;;;;;;;2.93;2.30;;;18.20;98.00;;;;;;5106466;28;20512;-71
2021/09/08 08:20:20;;;;;;;2.57;2.33;;;18.30;98.00;;;;;;5106434;28;20524;-71
2021/09/08 08:22:49;;;;;;;1.90;1.90;;;18.50;98.00;;;;;;5103366;28;20654;-75
2021/09/08 08:25:18;;;;;;;2.03;1.80;;;18.70;98.00;;;;;;5090583;28;20490;-73
2021/09/08 08:27:46;;;;;;;1.70;1.50;;;18.90;98.00;;;;;;5089605;28;20552;-73
2021/09/08 08:30:17;;;;;;;1.90;1.80;;;19.00;98.00;;;;;;5096960;28;20551;-73
2021/09/08 08:32:44;;;;;;;2.43;2.00;;;19.30;98.00;;;;;;5097419;28;20451;-73
2021/09/08 08:35:15;;;;;;;1.63;1.57;;;19.40;98.00;;;;;;5103076;28;20488;-75
2021/09/08 08:37:42;;;;;;;2.80;1.77;;;19.70;98.00;;;;;;5094955;28;20451;-73
2021/09/08 08:40:12;;;;;;;1.90;1.70;;;19.80;98.00;;;;;;5101894;28;20488;-73
2021/09/08 08:42:40;;;;;;;1.40;1.40;;;20.00;98.00;;;;;;5103768;28;20459;-72
2021/09/08 08:45:09;;;;;;;3.07;2.03;;;20.20;98.00;;;;;;5093912;28;20492;-72
2021/09/08 08:47:37;;;;;;;2.20;1.80;;;20.40;98.00;;;;;;5094326;28;20546;-72
2021/09/08 08:50:05;;;;;;;2.23;1.83;;;20.60;98.00;;;;;;5097133;28;20460;-71
2021/09/08 08:52:33;;;;;;;2.07;1.80;;;20.80;98.00;;;;;;5102697;28;20474;-73
2021/09/08 08:55:00;;;;;;;1.97;1.50;;;21.00;98.00;;;;;;5102310;28;20572;-71
2021/09/08 08:57:28;;;;;;;4.07;2.30;;;21.20;98.00;;;;;;5099125;28;20458;-72
2021/09/08 08:59:55;;;;;;;2.63;1.97;;;21.30;98.00;;;;;;5104892;28;20461;-72
2021/09/08 09:02:25;;;;;;;3.00;2.13;;;21.50;98.00;;;;;;5091805;28;20464;-72
2021/09/08 09:04:57;;;;;;;2.03;1.63;;;21.60;98.00;;;;;;5098208;28;20537;-73
2021/09/08 09:07:29;;;;;;;6.53;2.87;;;21.80;98.00;;;;;;5101230;28;20451;-72
2021/09/08 09:09:59;;;;;;;2.23;1.80;;;22.00;96.50;;;;;;5096022;28;20456;-73
2021/09/08 09:12:28;;;;;;;2.73;1.73;;;22.20;98.00;;;;;;5093647;28;20492;-71
2021/09/08 09:15:00;;;;;;;2.40;1.83;;;22.40;98.00;;;;;;5089723;28;20567;-71
2021/09/08 09:17:29;;;;;;;2.07;1.70;;;22.60;96.10;;;;;;5110105;28;20459;-70
2021/09/08 09:19:56;;;;;;;2.20;1.80;;;22.80;94.80;;;;;;5089516;28;20533;-71
2021/09/08 09:22:34;;;;;;;2.80;1.97;;;22.90;95.20;;;;;;5103566;28;20480;-70
2021/09/08 09:25:03;;;;;;;2.93;2.67;;;23.10;94.00;;;;;;5093175;28;20463;-71
2021/09/08 09:27:35;;;;;;;4.03;2.30;;;23.30;93.20;;;;;;5102556;28;20488;-72
2021/09/08 09:30:09;;;;;;;4.23;2.60;;;23.40;93.40;;;;;;5093298;28;20554;-72
2021/09/08 09:32:37;;;;;;;3.90;2.20;;;23.60;91.60;;;;;;5102267;28;20452;-73
2021/09/08 09:35:07;;;;;;;2.90;2.10;;;23.70;91.50;;;;;;5101728;28;21018;-71
2021/09/08 09:37:35;;;;;;;2.73;2.00;;;23.90;92.20;;;;;;5110750;28;20984;-71
2021/09/08 09:40:06;;;;;;;2.60;2.40;;;24.00;91.20;;;;;;5110680;28;20519;-71
2021/09/08 09:42:33;;;;;;;3.00;2.10;;;24.10;89.90;;;;;;5109938;28;20463;-72
2021/09/08 09:45:03;;;;;;;3.07;2.47;;;24.20;88.20;;;;;;5101454;28;20879;-72
2021/09/08 09:47:34;;;;;;;3.57;2.20;;;24.30;88.90;;;;;;5099658;28;20450;-75
2021/09/08 09:50:01;;;;;;;2.80;2.23;;;24.40;88.70;;;;;;5088243;28;20451;-71
2021/09/08 09:52:28;;;;;;;4.20;2.70;;;24.60;87.40;;;;;;5082964;28;20866;-71
2021/09/08 09:54:55;;;;;;;4.50;2.40;;;24.70;86.90;;;;;;5093103;28;20519;-70
2021/09/08 09:57:24;;;;;;;4.50;2.53;;;24.80;88.60;;;;;;5074041;28;20477;-70
2021/09/08 09:59:52;;;;;;;3.60;2.37;;;25.00;87.50;;;;;;5093503;28;20447;-74
2021/09/08 10:02:19;;;;;;;3.93;2.50;;;25.10;86.10;;;;;;5107866;28;20490;-69
2021/09/08 10:04:48;;;;;;;3.70;2.70;;;25.30;85.70;;;;;;5092834;28;20488;-72
2021/09/08 10:07:20;;;;;;;4.00;2.60;;;25.40;86.20;;;;;;5100770;28;20463;-72
2021/09/08 10:09:51;;;;;;;3.37;2.00;;;25.50;84.70;;;;;;5100869;28;20531;-72
2021/09/08 10:12:32;;;;;;;4.87;2.87;;;25.50;84.20;;;;;;5109438;28;20469;-71
2021/09/08 10:15:01;;;;;;;4.07;2.53;;;25.70;85.40;;;;;;5109758;28;20490;-71
2021/09/08 10:17:34;;;;;;;7.57;2.60;;;25.90;86.10;;;;;;5109330;28;20455;-71
2021/09/08 10:20:06;;;;;;;2.60;2.03;;;26.00;83.20;;;;;;5105422;28;20460;-70
2021/09/08 10:22:39;;;;;;;2.83;2.03;;;26.10;83.60;;;;;;5097157;28;20501;-71
2021/09/08 10:25:10;;;;;;;3.13;2.20;;;26.20;81.90;;;;;;5078031;28;21666;-72
2021/09/08 10:27:39;;;;;;;5.07;2.97;;;26.40;83.20;;;;;;5089839;28;20617;-70
2021/09/08 10:30:08;;;;;;;4.23;2.67;;;26.50;82.60;;;;;;5100440;28;20492;-70
2021/09/08 10:32:35;;;;;;;2.83;2.23;;;26.60;82.50;;;;;;5097501;28;20953;-72
2021/09/08 10:35:12;;;;;;;2.63;2.10;;;26.70;82.40;;;;;;5108228;28;20575;-71
2021/09/08 10:37:40;;;;;;;3.87;2.80;;;26.80;82.20;;;;;;5108397;28;20459;-71
2021/09/08 10:40:10;;;;;;;3.07;2.20;;;26.90;80.90;;;;;;5102573;28;20460;-71
2021/09/08 10:42:51;;;;;;;2.60;2.13;;;27.00;81.00;;;;;;5106579;28;20451;-71
2021/09/08 10:45:21;;;;;;;6.43;3.00;;;27.10;81.10;;;;;;5100134;28;20456;-72
2021/09/08 10:47:48;;;;;;;3.33;2.43;;;27.10;80.30;;;;;;5091819;28;20464;-71
2021/09/08 10:50:16;;;;;;;3.93;2.20;;;27.30;80.30;;;;;;5107755;28;20543;-70
2021/09/08 10:52:52;;;;;;;2.83;2.23;;;27.30;81.70;;;;;;5102187;28;21015;-71
2021/09/08 10:55:22;;;;;;;3.60;2.47;;;27.40;79.30;;;;;;5092419;28;20495;-72
2021/09/08 10:58:01;;;;;;;5.10;2.83;;;27.60;81.00;;;;;;5091034;28;20517;-72
2021/09/08 11:00:31;;;;;;;3.90;2.70;;;27.70;79.30;;;;;;5081592;28;20482;-72
2021/09/08 11:02:59;;;;;;;3.20;2.33;;;27.70;80.30;;;;;;5100850;28;20486;-72
2021/09/08 11:05:26;;;;;;;4.97;2.77;;;27.90;79.30;;;;;;5092552;28;20456;-70
2021/09/08 11:07:53;;;;;;;3.87;2.43;;;28.00;79.10;;;;;;5100908;28;20552;-71
2021/09/08 11:10:28;;;;;;;3.77;2.50;;;28.20;79.30;;;;;;5107608;28;20463;-72
2021/09/08 11:12:57;;;;;;;4.43;2.50;;;28.40;78.80;;;;;;5093694;28;21007;-71
2021/09/08 11:15:34;;;;;;;4.03;2.40;;;28.70;79.10;;;;;;5106024;28;20549;-72
2021/09/08 11:18:02;;;;;;;4.03;2.77;;;28.80;77.40;;;;;;5102956;28;20462;-72
2021/09/08 11:20:28;;;;;;;3.80;2.40;;;29.00;77.30;;;;;;5085352;28;20975;-73
2021/09/08 11:23:00;;;;;;;4.23;2.33;;;29.00;76.20;;;;;;5102682;28;20483;-72
2021/09/08 11:25:30;;;;;;;2.83;2.13;;;29.10;75.90;;;;;;5104741;28;20487;-73
2021/09/08 11:27:58;;;;;;;3.20;2.23;;;29.30;75.80;;;;;;5091075;28;20517;-71
2021/09/08 11:30:32;;;;;;;4.20;2.50;;;29.30;76.50;;;;;;5096518;28;20538;-73
2021/09/08 11:33:02;;;;;;;4.23;2.40;;;29.60;76.50;;;;;;5090765;28;20487;-72
2021/09/08 11:35:50;;;;;;;3.60;2.70;;;29.80;74.90;;;;;;5091322;28;20544;-71
2021/09/08 11:38:19;;;;;;;5.23;2.77;;;29.90;73.90;;;;;;5095020;28;20509;-73
2021/09/08 11:40:50;;;;;;;4.07;2.30;;;29.80;74.10;;;;;;5107311;28;20486;-72
2021/09/08 11:43:31;;;;;;;4.23;2.57;;;29.90;74.60;;;;;;5107936;28;20455;-71
2021/09/08 11:46:10;;;;;;;3.83;2.30;;;30.00;73.60;;;;;;5089146;28;20508;-72
2021/09/08 11:48:37;;;;;;;3.90;2.47;;;30.10;76.40;;;;;;5098236;28;20498;-72
2021/09/08 11:51:05;;;;;;;3.73;2.40;;;30.10;73.00;;;;;;5092364;28;20460;-73
2021/09/08 11:53:33;;;;;;;3.00;2.33;;;30.10;72.00;;;;;;5091057;28;20451;-71
2021/09/08 11:56:07;;;;;;;4.93;2.97;;;30.10;73.00;;;;;;5091687;28;20926;-72
2021/09/08 11:58:34;;;;;;;2.70;2.33;;;30.20;73.90;;;;;;5098293;28;20484;-73
2021/09/08 12:01:09;;;;;;;3.30;2.43;;;30.00;73.40;;;;;;5091562;28;20973;-72
2021/09/08 12:03:42;;;;;;;4.00;2.50;;;29.80;73.80;;;;;;5096523;28;20516;-70
2021/09/08 12:06:20;;;;;;;2.80;2.20;;;29.30;74.60;;;;;;5099323;28;20467;-71
2021/09/08 12:08:53;;;;;;;3.97;2.67;;;29.30;74.90;;;;;;5089567;28;20456;-70
2021/09/08 12:11:37;;;;;;;3.97;2.40;;;29.10;73.30;;;;;;5091227;28;20543;-71
2021/09/08 12:14:26;;;;;;;2.63;2.17;;;29.00;74.50;;;;;;5096789;28;20461;-70
2021/09/08 12:16:56;;;;;;;4.07;2.37;;;29.00;74.40;;;;;;5090631;28;20483;-71
2021/09/08 12:19:30;;;;;;;3.30;2.43;;;29.00;76.20;;;;;;5090056;28;20513;-72
2021/09/08 12:22:05;;;;;;;3.30;2.20;;;29.00;74.60;;;;;;5106560;28;20491;-70
2021/09/08 12:24:34;;;;;;;4.60;2.87;;;29.00;76.80;;;;;;5107229;28;20521;-72
2021/09/08 12:27:01;;;;;;;4.97;2.80;;;29.10;75.60;;;;;;5098068;28;20451;-71
2021/09/08 12:29:28;;;;;;;4.17;2.50;;;29.20;73.80;;;;;;5097540;28;20463;-72
2021/09/08 12:32:01;;;;;;;3.37;2.30;;;29.20;73.70;;;;;;5092870;28;22199;-72
2021/09/08 12:34:44;;;;;;;4.57;2.17;;;29.30;73.90;;;;;;5091079;28;20498;-72
2021/09/08 12:37:12;;;;;;;3.30;2.20;;;29.30;74.50;;;;;;5110506;28;20459;-73
2021/09/08 12:39:44;;;;;;;2.97;2.03;;;29.50;73.00;;;;;;5109829;28;20460;-74
2021/09/08 12:42:19;;;;;;;2.70;2.30;;;29.50;74.30;;;;;;5111050;28;20478;-73
2021/09/08 12:44:47;;;;;;;3.73;2.40;;;29.60;73.80;;;;;;5113430;28;20557;-72
2021/09/08 12:47:17;;;;;;;3.20;2.43;;;29.50;73.60;;;;;;5106342;28;20462;-72
2021/09/08 12:49:46;;;;;;;3.07;2.30;;;29.50;75.30;;;;;;5108797;28;20926;-71
2021/09/08 12:52:14;;;;;;;3.13;2.23;;;29.70;73.30;;;;;;5102616;28;20542;-71
2021/09/08 12:54:42;;;;;;;3.50;2.37;;;29.80;73.40;;;;;;5103954;28;20487;-73